Time;durP1;ratioP1;P1;durP2;ratioP2;P2;SDS_P1;SDS_P2;PMS_P1;PMS_P2;Temp;Humidity;BMP_temperature;BMP_pressure;BME280_temperature;BME280_humidity;BME280_pressure;Samples;Min_cycle;Max_cycle;Signal;HPM_P1;HPM_P2
2022/10/01 00:00:48;;;;;;;16.73;15.13;;;9.00;1.00;;;;;;6273754;28;20241;-53
2022/10/01 00:03:51;;;;;;;16.40;14.87;;;9.00;1.00;;;;;;6286241;28;20594;-52
2022/10/01 00:06:58;;;;;;;15.73;14.23;;;9.00;1.00;;;;;;6288378;28;20301;-54
2022/10/01 00:10:00;;;;;;;15.93;14.53;;;9.00;1.00;;;;;;6268892;28;20780;-54
2022/10/01 00:13:05;;;;;;;15.40;13.87;;;8.90;1.00;;;;;;6284605;28;20237;-54
2022/10/01 00:16:09;;;;;;;15.83;14.33;;;8.90;1.00;;;;;;6263346;28;20241;-53
2022/10/01 00:19:13;;;;;;;15.83;14.37;;;8.90;1.00;;;;;;6263463;28;20353;-54
2022/10/01 00:22:17;;;;;;;13.60;12.50;;;8.90;1.00;;;;;;6284070;28;20248;-54
2022/10/01 00:25:21;;;;;;;14.63;13.30;;;8.80;1.00;;;;;;6276956;28;20238;-52
2022/10/01 00:28:28;;;;;;;14.93;13.70;;;8.80;1.00;;;;;;6284246;28;20226;-54
2022/10/01 00:31:32;;;;;;;14.20;13.00;;;8.80;1.00;;;;;;6279440;28;20234;-53
2022/10/01 00:34:36;;;;;;;13.60;12.50;;;8.80;1.00;;;;;;6288319;28;20750;-54
2022/10/01 00:37:39;;;;;;;12.40;11.40;;;8.70;1.00;;;;;;6306258;28;20239;-51
2022/10/01 00:40:41;;;;;;;14.37;13.07;;;8.70;1.00;;;;;;6284729;28;20242;-53
2022/10/01 00:43:49;;;;;;;13.17;12.07;;;8.70;1.00;;;;;;6268649;28;20229;-54
2022/10/01 00:46:54;;;;;;;13.50;12.30;;;8.70;1.00;;;;;;6283947;28;20745;-53
2022/10/01 00:50:02;;;;;;;16.33;14.50;;;8.60;1.00;;;;;;6280535;28;20711;-53
2022/10/01 00:53:10;;;;;;;13.70;12.40;;;8.60;1.00;;;;;;6277399;28;20570;-53
2022/10/01 00:56:13;;;;;;;15.23;13.87;;;8.60;1.00;;;;;;6283841;28;20241;-53
2022/10/01 00:59:18;;;;;;;12.83;11.73;;;8.60;1.00;;;;;;6276915;28;20242;-53
2022/10/01 01:02:21;;;;;;;13.83;12.53;;;8.60;1.00;;;;;;6277513;28;20226;-54
2022/10/01 01:05:24;;;;;;;14.80;13.37;;;8.60;1.00;;;;;;6286470;28;20235;-54
2022/10/01 01:08:28;;;;;;;14.70;13.40;;;8.60;1.00;;;;;;6274354;28;20492;-54
2022/10/01 01:11:40;;;;;;;13.83;12.60;;;8.60;1.00;;;;;;6258623;28;20234;-52
2022/10/01 01:14:53;;;;;;;15.10;13.77;;;8.60;1.00;;;;;;6259450;28;20254;-54
2022/10/01 01:18:04;;;;;;;12.93;11.83;;;8.50;1.00;;;;;;6259231;28;20244;-53
2022/10/01 01:21:18;;;;;;;14.13;13.03;;;8.50;1.00;;;;;;6278235;28;20241;-53
2022/10/01 01:24:40;;;;;;;14.03;12.63;;;8.60;1.00;;;;;;6277264;28;20252;-53
2022/10/01 01:27:46;;;;;;;15.33;13.93;;;8.80;1.00;;;;;;6258780;28;20230;-53
2022/10/01 01:30:56;;;;;;;15.30;13.90;;;8.50;1.00;;;;;;6259307;28;20334;-53
2022/10/01 01:34:03;;;;;;;17.20;15.60;;;8.40;1.00;;;;;;6272533;28;20256;-53
2022/10/01 01:37:10;;;;;;;15.23;13.97;;;8.40;1.00;;;;;;6300446;28;20224;-53
2022/10/01 01:40:16;;;;;;;14.73;13.43;;;8.40;1.00;;;;;;6302381;28;20265;-53
2022/10/01 01:43:24;;;;;;;13.80;12.77;;;8.50;1.00;;;;;;6259382;28;20641;-53
2022/10/01 01:46:32;;;;;;;12.93;11.90;;;8.50;1.00;;;;;;6258865;28;20249;-54
2022/10/01 01:49:35;;;;;;;12.83;11.83;;;8.50;1.00;;;;;;6265182;28;20233;-52
2022/10/01 01:52:38;;;;;;;12.77;11.87;;;8.50;1.00;;;;;;6279811;28;20706;-58
2022/10/01 01:55:43;;;;;;;13.57;12.43;;;8.50;1.00;;;;;;6283418;28;20256;-54
2022/10/01 01:58:46;;;;;;;11.87;10.97;;;8.40;1.00;;;;;;6283662;28;20588;-54
2022/10/01 02:01:51;;;;;;;12.93;11.83;;;8.50;1.00;;;;;;6281954;28;20721;-54
2022/10/01 02:04:58;;;;;;;12.90;11.93;;;8.40;1.00;;;;;;6291782;28;20256;-52
2022/10/01 02:08:19;;;;;;;14.87;13.33;;;8.40;1.00;;;;;;6307674;28;20236;-54
2022/10/01 02:11:28;;;;;;;16.63;15.23;;;8.40;1.00;;;;;;6258048;28;20234;-54
2022/10/01 02:14:41;;;;;;;17.40;15.57;;;8.40;1.00;;;;;;6258882;28;20230;-54
2022/10/01 02:17:54;;;;;;;17.70;16.00;;;8.40;1.00;;;;;;6257690;28;20238;-53
2022/10/01 02:21:07;;;;;;;17.23;15.63;;;8.50;1.00;;;;;;6271560;28;20249;-53
2022/10/01 02:24:20;;;;;;;16.10;14.67;;;8.50;1.00;;;;;;6275394;28;20245;-53
2022/10/01 02:27:29;;;;;;;16.93;15.33;;;8.50;1.00;;;;;;6254720;28;20827;-54
2022/10/01 02:30:34;;;;;;;17.10;15.50;;;8.60;1.00;;;;;;6268598;28;20376;-54
2022/10/01 02:33:41;;;;;;;17.37;15.77;;;8.70;1.00;;;;;;6283201;28;20316;-54
2022/10/01 02:36:45;;;;;;;16.77;15.17;;;8.70;1.00;;;;;;6291768;28;20299;-52
2022/10/01 02:39:50;;;;;;;16.57;14.97;;;8.70;1.00;;;;;;6261217;28;20237;-52
2022/10/01 02:42:57;;;;;;;16.60;15.13;;;8.80;1.00;;;;;;6265885;28;20249;-56
2022/10/01 02:46:07;;;;;;;16.77;15.27;;;8.70;1.00;;;;;;6260605;28;20257;-53
2022/10/01 02:49:13;;;;;;;16.27;14.80;;;8.70;1.00;;;;;;6259844;28;20230;-54
2022/10/01 02:52:22;;;;;;;16.13;14.73;;;8.80;1.00;;;;;;6283139;28;20449;-52
2022/10/01 02:55:29;;;;;;;15.70;14.40;;;8.70;1.00;;;;;;6270783;28;20250;-56
2022/10/01 02:58:31;;;;;;;13.40;12.40;;;8.70;1.00;;;;;;6258468;28;20305;-54
2022/10/01 03:01:35;;;;;;;15.87;14.57;;;8.70;1.00;;;;;;6278059;28;20714;-53
2022/10/01 03:04:40;;;;;;;15.67;14.43;;;8.60;1.00;;;;;;6286550;28;20224;-53
2022/10/01 03:07:43;;;;;;;15.60;14.20;;;8.70;1.00;;;;;;6286195;28;20240;-53
2022/10/01 03:10:46;;;;;;;16.13;14.83;;;8.70;1.00;;;;;;6281622;28;20268;-54
2022/10/01 03:13:49;;;;;;;16.17;14.60;;;8.70;1.00;;;;;;6261136;28;20647;-53
2022/10/01 03:16:52;;;;;;;15.10;13.80;;;8.90;1.00;;;;;;6257958;28;20238;-52
2022/10/01 03:19:56;;;;;;;15.57;14.07;;;8.70;1.00;;;;;;6266670;28;20234;-52
2022/10/01 03:22:59;;;;;;;15.80;14.50;;;8.70;1.00;;;;;;6267872;28;20608;-52
2022/10/01 03:26:02;;;;;;;14.90;13.53;;;8.70;1.00;;;;;;6262123;28;20725;-54
2022/10/01 03:29:05;;;;;;;15.37;13.50;;;8.70;1.00;;;;;;6262465;28;20281;-53
2022/10/01 03:32:08;;;;;;;14.67;13.50;;;8.80;1.00;;;;;;6255128;28;20299;-52
2022/10/01 03:35:12;;;;;;;14.33;13.07;;;8.70;1.00;;;;;;6285730;28;20229;-54
2022/10/01 03:38:15;;;;;;;15.17;13.90;;;8.70;1.00;;;;;;6287087;28;20228;-52
2022/10/01 03:41:18;;;;;;;13.63;12.50;;;8.70;1.00;;;;;;6277312;28;20586;-52
2022/10/01 03:44:21;;;;;;;14.60;13.30;;;8.60;1.00;;;;;;6276786;28;20245;-54
2022/10/01 03:47:24;;;;;;;14.30;12.97;;;8.50;1.00;;;;;;6278118;28;20225;-54
2022/10/01 03:50:29;;;;;;;14.07;12.90;;;9.00;1.00;;;;;;6283605;28;20225;-53
2022/10/01 03:53:32;;;;;;;15.17;13.43;;;8.60;1.00;;;;;;6274723;28;20233;-53
2022/10/01 03:56:35;;;;;;;13.33;12.37;;;8.70;1.00;;;;;;6279046;28;20238;-53
2022/10/01 03:59:38;;;;;;;13.37;12.30;;;8.70;1.00;;;;;;6282090;28;20245;-52
2022/10/01 04:02:41;;;;;;;14.10;12.90;;;8.70;1.00;;;;;;6278963;28;20624;-56
2022/10/01 04:05:46;;;;;;;14.43;13.03;;;8.70;1.00;;;;;;6282215;28;20320;-53
2022/10/01 04:08:49;;;;;;;14.40;13.10;;;8.70;1.00;;;;;;6283238;28;20256;-52
2022/10/01 04:11:51;;;;;;;13.43;12.23;;;8.70;1.00;;;;;;6278288;28;20241;-53
2022/10/01 04:14:54;;;;;;;12.67;11.53;;;8.70;1.00;;;;;;6285151;28;20233;-52
2022/10/01 04:17:57;;;;;;;12.97;11.87;;;8.70;1.00;;;;;;6289999;28;20245;-53
2022/10/01 04:21:02;;;;;;;12.47;11.37;;;8.70;1.00;;;;;;6279964;28;20240;-53
2022/10/01 04:24:05;;;;;;;13.20;12.03;;;8.70;1.00;;;;;;6283518;28;20380;-54
2022/10/01 04:27:07;;;;;;;13.07;11.97;;;8.70;1.00;;;;;;6281931;28;20309;-54
2022/10/01 04:30:11;;;;;;;13.40;12.00;;;8.80;1.00;;;;;;6282555;28;20257;-52
2022/10/01 04:33:16;;;;;;;13.07;11.97;;;8.90;1.00;;;;;;6281544;28;20249;-53
2022/10/01 04:36:20;;;;;;;11.80;11.00;;;8.70;1.00;;;;;;6273525;28;20248;-54
2022/10/01 04:39:23;;;;;;;11.80;11.00;;;8.80;1.00;;;;;;6285225;28;20243;-54
2022/10/01 04:42:26;;;;;;;12.40;11.40;;;8.80;1.00;;;;;;6275676;28;20233;-54
2022/10/01 04:45:30;;;;;;;12.27;11.27;;;8.80;1.00;;;;;;6286093;28;20264;-54
2022/10/01 04:48:32;;;;;;;11.90;11.10;;;8.80;1.00;;;;;;6285821;28;20878;-53
2022/10/01 04:51:37;;;;;;;11.43;10.50;;;8.80;1.00;;;;;;6289057;28;20251;-53
2022/10/01 04:54:40;;;;;;;12.77;11.67;;;8.80;1.00;;;;;;6254056;28;20229;-53
2022/10/01 04:57:43;;;;;;;12.43;11.23;;;8.80;1.00;;;;;;6284391;28;20249;-54
2022/10/01 05:00:47;;;;;;;11.27;10.37;;;9.10;1.00;;;;;;6285059;28;20724;-52
2022/10/01 05:03:50;;;;;;;11.97;10.83;;;8.80;1.00;;;;;;6278879;28;20251;-54
2022/10/01 05:06:55;;;;;;;11.83;10.90;;;8.80;1.00;;;;;;6276809;28;20716;-53
2022/10/01 05:09:59;;;;;;;11.80;11.00;;;8.80;1.00;;;;;;6296121;28;20240;-53
2022/10/01 05:13:01;;;;;;;12.57;11.47;;;8.80;1.00;;;;;;6293357;28;20728;-53
2022/10/01 05:16:04;;;;;;;12.03;11.07;;;8.90;1.00;;;;;;6293179;28;20232;-54
2022/10/01 05:19:07;;;;;;;12.20;11.03;;;8.90;1.00;;;;;;6298602;28;20486;-54
2022/10/01 05:22:12;;;;;;;11.47;10.37;;;8.90;1.00;;;;;;6284683;28;20860;-53
2022/10/01 05:25:15;;;;;;;11.57;10.43;;;8.90;1.00;;;;;;6285988;28;20236;-55
2022/10/01 05:28:18;;;;;;;11.50;10.57;;;8.80;1.00;;;;;;6283534;28;20244;-53
2022/10/01 05:31:24;;;;;;;12.03;10.97;;;8.90;1.00;;;;;;6294317;28;20226;-52
2022/10/01 05:34:27;;;;;;;10.93;10.03;;;8.90;1.00;;;;;;6275547;28;20251;-52
2022/10/01 05:37:32;;;;;;;11.53;10.47;;;8.80;1.00;;;;;;6275665;28;20244;-54
2022/10/01 05:40:34;;;;;;;11.73;10.70;;;8.90;1.00;;;;;;6280639;28;20245;-53
2022/10/01 05:43:37;;;;;;;12.17;10.87;;;8.90;1.00;;;;;;6277690;28;20272;-53
2022/10/01 05:46:41;;;;;;;11.17;10.00;;;9.00;1.00;;;;;;6284556;28;20393;-52
2022/10/01 05:49:44;;;;;;;10.97;10.13;;;9.00;1.00;;;;;;6283701;28;20260;-54
2022/10/01 05:52:53;;;;;;;13.07;10.57;;;9.00;1.00;;;;;;6290487;28;20237;-55
2022/10/01 05:55:59;;;;;;;10.80;9.90;;;9.00;1.00;;;;;;6284454;28;20233;-54
2022/10/01 05:59:01;;;;;;;11.40;10.47;;;9.10;1.00;;;;;;6289085;28;20397;-54
2022/10/01 06:02:05;;;;;;;10.47;9.67;;;9.10;1.00;;;;;;6290251;28;20774;-54
2022/10/01 06:05:08;;;;;;;10.83;9.97;;;9.20;1.00;;;;;;6294150;28;20224;-54
2022/10/01 06:08:13;;;;;;;10.47;9.47;;;9.20;1.00;;;;;;6284176;28;20729;-55
2022/10/01 06:11:16;;;;;;;11.47;10.40;;;9.30;1.00;;;;;;6282511;28;20241;-54
2022/10/01 06:14:19;;;;;;;10.20;8.87;;;9.30;1.00;;;;;;6286355;28;20229;-54
2022/10/01 06:17:22;;;;;;;10.07;9.27;;;9.40;1.00;;;;;;6285208;28;20625;-54
2022/10/01 06:20:25;;;;;;;10.10;9.10;;;9.50;1.00;;;;;;6288421;28;20486;-54
2022/10/01 06:23:29;;;;;;;10.27;9.40;;;9.60;1.00;;;;;;6281833;28;20226;-54
2022/10/01 06:26:32;;;;;;;9.93;9.13;;;9.70;1.00;;;;;;6281529;28;20221;-54
2022/10/01 06:29:35;;;;;;;9.90;8.87;;;9.80;1.00;;;;;;6277182;28;20234;-53
2022/10/01 06:32:38;;;;;;;10.03;9.33;;;9.80;1.00;;;;;;6282483;28;20416;-54
2022/10/01 06:35:42;;;;;;;10.33;9.47;;;9.80;1.00;;;;;;6280062;28;20558;-54
2022/10/01 06:38:49;;;;;;;10.70;9.70;;;9.90;1.00;;;;;;6277269;28;20238;-54
2022/10/01 06:41:52;;;;;;;9.97;9.20;;;9.90;1.00;;;;;;6287438;28;20880;-56
2022/10/01 06:44:55;;;;;;;9.93;9.23;;;9.90;1.00;;;;;;6285540;28;20229;-54
2022/10/01 06:48:01;;;;;;;10.33;9.50;;;10.00;1.00;;;;;;6285635;28;20239;-54
2022/10/01 06:51:04;;;;;;;10.17;9.27;;;10.00;1.00;;;;;;6287758;28;20330;-54
2022/10/01 06:54:09;;;;;;;9.77;8.77;;;10.00;1.00;;;;;;6284864;28;20763;-54
2022/10/01 06:57:12;;;;;;;10.53;9.40;;;10.00;1.00;;;;;;6283000;28;20245;-54
2022/10/01 07:00:15;;;;;;;9.80;9.00;;;10.10;1.00;;;;;;6287946;28;20232;-57
2022/10/01 07:03:20;;;;;;;10.17;9.27;;;10.10;1.00;;;;;;6286263;28;20237;-52
2022/10/01 07:06:24;;;;;;;10.73;9.70;;;10.10;1.00;;;;;;6287921;28;20745;-53
2022/10/01 07:09:28;;;;;;;10.50;9.50;;;10.20;1.00;;;;;;6286383;28;20376;-52
2022/10/01 07:12:31;;;;;;;10.67;9.63;;;10.10;1.00;;;;;;6276010;28;20232;-54
2022/10/01 07:15:34;;;;;;;9.80;9.03;;;10.30;1.00;;;;;;6288656;28;20743;-54
2022/10/01 07:18:37;;;;;;;9.67;8.87;;;10.30;1.00;;;;;;6287006;28;20244;-53
2022/10/01 07:21:40;;;;;;;10.37;9.50;;;10.40;1.00;;;;;;6290848;28;20249;-52
2022/10/01 07:24:44;;;;;;;9.83;8.93;;;10.40;1.00;;;;;;6292293;28;20229;-53
2022/10/01 07:27:47;;;;;;;10.93;9.90;;;10.40;1.00;;;;;;6283935;28;20839;-54
2022/10/01 07:30:58;;;;;;;10.27;9.33;;;10.40;1.00;;;;;;6278364;28;20942;-53
2022/10/01 07:34:01;;;;;;;9.67;8.87;;;10.40;1.00;;;;;;6285780;28;20226;-54
2022/10/01 07:37:05;;;;;;;10.40;9.50;;;10.50;1.00;;;;;;6259013;28;20703;-53
2022/10/01 07:40:10;;;;;;;10.30;9.40;;;10.60;1.00;;;;;;6276058;28;20229;-54
2022/10/01 07:43:13;;;;;;;10.47;9.57;;;10.60;1.00;;;;;;6281846;28;20244;-54
2022/10/01 07:46:16;;;;;;;10.77;9.50;;;10.70;1.00;;;;;;6284830;28;20244;-52
2022/10/01 07:49:19;;;;;;;11.30;8.97;;;10.80;1.00;;;;;;6284924;28;20498;-52
2022/10/01 07:52:22;;;;;;;9.70;9.00;;;10.90;1.00;;;;;;6289308;28;20300;-52
2022/10/01 07:55:29;;;;;;;9.77;8.97;;;11.00;1.00;;;;;;6274284;28;20238;-53
2022/10/01 07:58:33;;;;;;;9.60;8.80;;;11.10;1.00;;;;;;6292273;28;20472;-55
2022/10/01 08:01:36;;;;;;;9.07;8.43;;;11.30;1.00;;;;;;6293632;28;20237;-52
2022/10/01 08:08:00;;;;;;;9.37;8.57;;;11.40;1.00;;;;;;6285181;28;20249;-53
2022/10/01 08:11:06;;;;;;;9.43;8.73;;;11.40;1.00;;;;;;6282890;28;20267;-53
2022/10/01 08:14:09;;;;;;;9.37;8.60;;;11.40;1.00;;;;;;6288253;28;20314;-54
2022/10/01 08:17:12;;;;;;;10.77;9.87;;;11.50;1.00;;;;;;6285253;28;20246;-55
2022/10/01 08:20:15;;;;;;;9.63;8.80;;;11.60;1.00;;;;;;6287542;28;20237;-54
2022/10/01 08:23:18;;;;;;;10.70;9.77;;;11.60;1.00;;;;;;6289981;28;20328;-54
2022/10/01 08:26:22;;;;;;;9.37;8.57;;;11.70;1.00;;;;;;6284761;28;20229;-52
2022/10/01 08:29:25;;;;;;;9.30;8.47;;;11.70;1.00;;;;;;6282437;28;20229;-54
2022/10/01 08:32:29;;;;;;;9.37;8.63;;;11.70;1.00;;;;;;6283766;28;20234;-54
2022/10/01 08:35:32;;;;;;;9.80;9.07;;;11.70;1.00;;;;;;6283321;28;20239;-55
2022/10/01 08:38:36;;;;;;;8.87;7.97;;;11.70;1.00;;;;;;6283191;28;20248;-53
2022/10/01 08:41:51;;;;;;;9.53;8.73;;;11.80;1.00;;;;;;6294459;28;20244;-54
2022/10/01 08:44:54;;;;;;;9.40;8.57;;;11.90;1.00;;;;;;6292078;28;20667;-53
2022/10/01 08:48:03;;;;;;;9.73;8.93;;;11.80;1.00;;;;;;6291230;28;20244;-53
2022/10/01 08:51:11;;;;;;;11.53;10.47;;;11.90;1.00;;;;;;6286408;28;20252;-53
2022/10/01 08:54:27;;;;;;;10.13;9.33;;;11.90;1.00;;;;;;6297517;28;20614;-54
2022/10/01 08:57:38;;;;;;;9.00;8.23;;;12.00;1.00;;;;;;6294797;28;20229;-52
2022/10/01 09:00:44;;;;;;;9.67;8.37;;;12.20;1.00;;;;;;6281750;28;20587;-53
2022/10/01 09:03:48;;;;;;;8.20;7.70;;;12.20;1.00;;;;;;6282746;28;20496;-58
2022/10/01 09:06:59;;;;;;;8.73;7.97;;;12.30;1.00;;;;;;6285416;28;20241;-55
2022/10/01 09:10:16;;;;;;;8.40;7.77;;;12.50;1.00;;;;;;6282845;28;20241;-55
2022/10/01 09:13:46;;;;;;;8.03;7.57;;;12.50;1.00;;;;;;6294434;28;20229;-54
2022/10/01 09:17:02;;;;;;;8.77;7.97;;;12.60;1.00;;;;;;6287789;28;20234;-54
2022/10/01 09:20:17;;;;;;;7.33;6.83;;;12.70;1.00;;;;;;6281167;28;20244;-52
2022/10/01 09:23:27;;;;;;;7.40;7.00;;;12.90;1.00;;;;;;6279333;28;20237;-53
2022/10/01 09:26:30;;;;;;;6.50;6.20;;;12.90;1.00;;;;;;6274792;28;20722;-54
2022/10/01 09:29:41;;;;;;;7.60;6.90;;;13.10;1.00;;;;;;6282096;28;20724;-55
2022/10/01 09:32:50;;;;;;;6.27;6.07;;;13.10;1.00;;;;;;6285795;28;20252;-53
2022/10/01 09:36:00;;;;;;;6.40;6.00;;;13.20;1.00;;;;;;6280653;28;20233;-54
2022/10/01 09:39:14;;;;;;;6.00;5.70;;;13.40;1.00;;;;;;6279790;28;20245;-53
2022/10/01 09:42:17;;;;;;;6.40;6.00;;;13.50;1.00;;;;;;6275803;28;20237;-55
2022/10/01 09:45:23;;;;;;;5.83;5.53;;;13.60;1.00;;;;;;6282633;28;20732;-53
2022/10/01 09:48:31;;;;;;;4.70;4.50;;;13.50;1.00;;;;;;6285500;28;20233;-55
2022/10/01 09:51:40;;;;;;;5.00;4.83;;;13.40;1.00;;;;;;6287438;28;20241;-53
2022/10/01 09:54:47;;;;;;;4.80;4.60;;;13.30;1.00;;;;;;6289997;28;20839;-54
2022/10/01 09:57:57;;;;;;;5.23;4.83;;;13.20;1.00;;;;;;6284470;28;20306;-53
2022/10/01 10:01:02;;;;;;;4.50;4.30;;;13.30;1.00;;;;;;6284160;28;20260;-53
2022/10/01 10:04:05;;;;;;;5.40;4.83;;;13.20;1.00;;;;;;6286037;28;20233;-55
2022/10/01 10:07:15;;;;;;;4.53;4.33;;;13.10;1.00;;;;;;6286765;28;20239;-54
2022/10/01 10:10:20;;;;;;;4.33;4.23;;;13.00;1.00;;;;;;6288841;28;20233;-54
2022/10/01 10:13:33;;;;;;;4.70;4.50;;;12.80;1.00;;;;;;6276541;28;20879;-55
2022/10/01 10:16:46;;;;;;;4.90;4.50;;;12.60;1.00;;;;;;6279358;28;20558;-54
2022/10/01 10:19:51;;;;;;;5.53;5.23;;;12.50;1.00;;;;;;6284230;28;20294;-52
2022/10/01 10:22:54;;;;;;;5.90;5.70;;;12.30;1.00;;;;;;6280837;28;20238;-52
2022/10/01 10:25:59;;;;;;;5.50;5.30;;;12.20;1.00;;;;;;6292522;28;20229;-53
2022/10/01 10:29:04;;;;;;;6.27;5.90;;;12.10;1.00;;;;;;6279739;28;20253;-54
2022/10/01 10:32:19;;;;;;;5.83;5.50;;;12.10;1.00;;;;;;6283421;28;20233;-52
2022/10/01 10:35:25;;;;;;;5.90;5.43;;;11.90;1.00;;;;;;6277707;28;20226;-57
2022/10/01 10:38:32;;;;;;;6.73;6.27;;;11.90;1.00;;;;;;6284187;28;20233;-53
2022/10/01 10:41:35;;;;;;;6.00;5.67;;;11.80;1.00;;;;;;6287557;28;20233;-56
2022/10/01 10:44:42;;;;;;;6.10;5.70;;;11.80;1.00;;;;;;6285030;28;20286;-54
2022/10/01 10:47:48;;;;;;;6.73;6.13;;;11.80;1.00;;;;;;6289475;28;20233;-55
2022/10/01 10:50:59;;;;;;;6.87;6.47;;;11.70;1.00;;;;;;6292626;28;20233;-55
2022/10/01 10:54:02;;;;;;;7.10;6.70;;;11.60;1.00;;;;;;6273259;28;20489;-55
2022/10/01 10:57:20;;;;;;;8.03;7.17;;;11.50;1.00;;;;;;6298130;28;20233;-55
2022/10/01 11:00:24;;;;;;;7.87;7.37;;;11.50;1.00;;;;;;6283272;28;20332;-54
2022/10/01 11:03:33;;;;;;;7.20;6.80;;;11.50;1.00;;;;;;6272882;28;20256;-54
2022/10/01 11:06:37;;;;;;;8.43;7.83;;;11.50;1.00;;;;;;6288286;28;20233;-54
2022/10/01 11:10:03;;;;;;;8.73;8.13;;;11.60;1.00;;;;;;6290239;28;20233;-53
2022/10/01 11:13:22;;;;;;;7.50;7.10;;;11.50;1.00;;;;;;6284034;28;20241;-53
2022/10/01 11:16:45;;;;;;;8.30;7.60;;;11.50;1.00;;;;;;6287573;28;20231;-54
2022/10/01 11:20:03;;;;;;;8.80;8.30;;;11.40;1.00;;;;;;6291081;28;20404;-55
2022/10/01 11:23:26;;;;;;;8.60;8.00;;;11.50;1.00;;;;;;6290275;28;20315;-53
2022/10/01 11:26:37;;;;;;;9.10;8.33;;;11.50;1.00;;;;;;6283627;28;20225;-54
2022/10/01 11:29:50;;;;;;;8.40;7.73;;;11.50;1.00;;;;;;6296558;28;20243;-53
2022/10/01 11:33:04;;;;;;;8.17;7.57;;;11.50;1.00;;;;;;6281611;28;20641;-55
2022/10/01 11:36:19;;;;;;;7.50;7.03;;;11.50;1.00;;;;;;6279070;28;20829;-54
2022/10/01 11:39:24;;;;;;;7.60;6.90;;;11.50;1.00;;;;;;6286237;28;20549;-55
2022/10/01 11:42:34;;;;;;;7.30;6.70;;;11.50;1.00;;;;;;6281048;28;20730;-55
2022/10/01 11:45:43;;;;;;;7.20;6.57;;;11.60;1.00;;;;;;6286558;28;20595;-55
2022/10/01 11:48:50;;;;;;;6.60;6.30;;;11.60;1.00;;;;;;6289706;28;20232;-55
2022/10/01 11:52:04;;;;;;;7.00;6.40;;;11.60;1.00;;;;;;6294032;28;20615;-55
2022/10/01 11:58:53;;;;;;;6.67;6.03;;;11.60;1.00;;;;;;6281728;28;20723;-54
2022/10/01 12:02:06;;;;;;;6.63;6.33;;;11.60;1.00;;;;;;6284798;28;20237;-55
2022/10/01 12:05:15;;;;;;;6.73;6.33;;;11.60;1.00;;;;;;6290694;28;20281;-55
2022/10/01 12:08:24;;;;;;;7.03;6.50;;;11.60;1.00;;;;;;6276140;28;20233;-54
2022/10/01 12:11:35;;;;;;;6.10;5.80;;;11.50;1.00;;;;;;6290574;28;20692;-53
2022/10/01 12:14:44;;;;;;;6.30;6.00;;;11.50;1.00;;;;;;6284310;28;20392;-52
2022/10/01 12:17:52;;;;;;;5.33;5.10;;;11.50;1.00;;;;;;6283236;28;20245;-55
2022/10/01 12:20:59;;;;;;;6.10;5.60;;;11.50;1.00;;;;;;6278561;28;20233;-52
2022/10/01 12:24:06;;;;;;;5.97;5.67;;;11.60;1.00;;;;;;6276998;28;20687;-53
2022/10/01 12:27:28;;;;;;;6.07;5.77;;;11.60;1.00;;;;;;6300029;28;20233;-55
2022/10/01 12:30:39;;;;;;;5.40;5.17;;;11.70;1.00;;;;;;6293547;28;20229;-55
2022/10/01 12:34:00;;;;;;;5.60;5.30;;;11.60;1.00;;;;;;6279369;28;20229;-54
2022/10/01 12:37:16;;;;;;;5.13;4.83;;;11.70;1.00;;;;;;6265066;28;20733;-54
2022/10/01 12:40:29;;;;;;;5.10;4.93;;;11.70;1.00;;;;;;6288673;28;20611;-54
2022/10/01 12:44:01;;;;;;;5.13;4.90;;;11.60;1.00;;;;;;6284471;28;20333;-53
2022/10/01 12:47:16;;;;;;;5.37;5.13;;;11.50;1.00;;;;;;6279980;28;20237;-53
2022/10/01 12:50:32;;;;;;;5.30;5.20;;;11.40;1.00;;;;;;6271508;28;20237;-53
2022/10/01 12:53:44;;;;;;;5.60;5.30;;;11.40;1.00;;;;;;6268413;28;20606;-53
2022/10/01 12:56:58;;;;;;;5.77;5.47;;;11.40;1.00;;;;;;6278431;28;20239;-53
2022/10/01 13:00:09;;;;;;;6.07;5.77;;;11.30;1.00;;;;;;6284050;28;20241;-53
2022/10/01 13:04:06;;;;;;;6.17;5.87;;;11.30;1.00;;;;;;6282572;28;20783;-55
2022/10/01 13:07:41;;;;;;;5.97;5.57;;;11.30;1.00;;;;;;6196400;28;20253;-55
2022/10/01 13:10:56;;;;;;;5.87;5.67;;;11.30;1.00;;;;;;6267609;28;20337;-54
2022/10/01 13:14:02;;;;;;;5.60;5.33;;;11.30;1.00;;;;;;6281258;28;20260;-54
2022/10/01 13:17:12;;;;;;;5.63;5.27;;;11.40;1.00;;;;;;6282170;28;20731;-54
2022/10/01 13:20:23;;;;;;;6.30;5.90;;;11.40;1.00;;;;;;6276580;28;20232;-54
2022/10/01 13:23:33;;;;;;;6.30;5.90;;;11.50;1.00;;;;;;6280597;28;20747;-55
2022/10/01 13:26:41;;;;;;;6.10;5.80;;;11.50;1.00;;;;;;6289452;28;20252;-53
2022/10/01 13:29:55;;;;;;;5.70;5.30;;;11.50;1.00;;;;;;6267647;28;20227;-54
2022/10/01 13:32:59;;;;;;;6.17;5.77;;;11.40;1.00;;;;;;6279932;28;20245;-56
2022/10/01 13:36:04;;;;;;;6.37;6.07;;;11.50;1.00;;;;;;6271745;28;20392;-54
2022/10/01 13:39:20;;;;;;;6.43;6.00;;;11.40;1.00;;;;;;6288710;28;20232;-53
2022/10/01 13:42:26;;;;;;;5.90;5.70;;;11.50;1.00;;;;;;6276547;28;20396;-55
2022/10/01 13:45:42;;;;;;;6.00;5.70;;;11.60;1.00;;;;;;6276091;28;20226;-56
2022/10/01 13:48:48;;;;;;;5.67;5.50;;;11.60;1.00;;;;;;6276079;28;20245;-53
2022/10/01 13:51:51;;;;;;;5.40;5.17;;;11.80;1.00;;;;;;6285545;28;20668;-55
2022/10/01 13:54:56;;;;;;;4.87;4.77;;;11.80;1.00;;;;;;6281518;28;20237;-54
2022/10/01 13:58:04;;;;;;;4.93;4.73;;;11.90;1.00;;;;;;6289886;28;20240;-55
2022/10/01 14:01:38;;;;;;;5.03;4.83;;;11.90;1.00;;;;;;6283787;28;20248;-55
2022/10/01 14:04:45;;;;;;;5.07;4.87;;;12.00;1.00;;;;;;6285498;28;20768;-54
2022/10/01 14:07:53;;;;;;;5.40;5.10;;;12.00;1.00;;;;;;6287979;28;20244;-56
2022/10/01 14:17:54;;;;;;;5.00;4.80;;;12.00;1.00;;;;;;6290686;28;20609;-54
2022/10/01 14:21:05;;;;;;;4.87;4.70;;;12.00;1.00;;;;;;6286309;28;20689;-55
2022/10/01 14:24:21;;;;;;;4.70;4.60;;;12.10;1.00;;;;;;6285924;28;20237;-55
2022/10/01 14:27:32;;;;;;;4.50;4.40;;;12.10;1.00;;;;;;6282152;28;20232;-55
2022/10/01 14:30:45;;;;;;;4.50;4.40;;;12.20;1.00;;;;;;6292049;28;20232;-55
2022/10/01 14:34:23;;;;;;;4.80;4.60;;;12.30;1.00;;;;;;6283068;28;20236;-54
2022/10/01 14:37:27;;;;;;;4.50;4.40;;;12.30;1.00;;;;;;6275569;28;20690;-52
2022/10/01 14:40:38;;;;;;;4.43;4.30;;;12.30;1.00;;;;;;6289083;28;20237;-53
2022/10/01 14:43:41;;;;;;;4.57;4.23;;;12.20;1.00;;;;;;6278203;28;20721;-54
2022/10/01 14:46:44;;;;;;;5.50;5.13;;;12.20;1.00;;;;;;6281903;28;20277;-54
2022/10/01 14:49:50;;;;;;;4.27;4.13;;;12.20;1.00;;;;;;6285627;28;20423;-54
2022/10/01 14:52:53;;;;;;;4.43;4.23;;;12.30;1.00;;;;;;6283123;28;20234;-54
2022/10/01 14:55:59;;;;;;;4.10;4.00;;;12.30;1.00;;;;;;6285340;28;20233;-53
2022/10/01 14:59:06;;;;;;;6.77;4.63;;;12.30;1.00;;;;;;6276773;28;20225;-59
2022/10/01 15:02:18;;;;;;;5.00;4.90;;;12.20;1.00;;;;;;6281134;28;20475;-55
2022/10/01 15:05:26;;;;;;;5.70;5.40;;;12.30;1.00;;;;;;6282053;28;20702;-54
2022/10/01 15:08:40;;;;;;;5.10;4.43;;;12.30;1.00;;;;;;6279295;28;20226;-55
2022/10/01 15:11:44;;;;;;;4.10;4.00;;;12.30;1.00;;;;;;6282664;28;20248;-60
2022/10/01 15:14:47;;;;;;;3.90;3.80;;;12.30;1.00;;;;;;6284776;28;20236;-54
2022/10/01 15:17:51;;;;;;;4.13;4.03;;;12.30;1.00;;;;;;6280508;28;20469;-54
2022/10/01 15:20:59;;;;;;;4.10;3.90;;;12.30;1.00;;;;;;6280592;28;20740;-53
2022/10/01 15:24:04;;;;;;;4.27;4.17;;;12.30;1.00;;;;;;6289874;28;20248;-54
2022/10/01 15:27:08;;;;;;;4.20;3.83;;;12.40;1.00;;;;;;6292203;28;20721;-54
2022/10/01 15:30:17;;;;;;;3.73;3.63;;;12.40;1.00;;;;;;6303185;28;20241;-53
2022/10/01 15:33:27;;;;;;;3.90;3.70;;;12.40;1.00;;;;;;6281278;28;20230;-55
2022/10/01 15:36:32;;;;;;;4.97;4.70;;;12.40;1.00;;;;;;6278663;28;20259;-55
2022/10/01 15:39:38;;;;;;;4.17;4.07;;;12.40;1.00;;;;;;6286712;28;20245;-54
2022/10/01 15:43:06;;;;;;;4.20;4.10;;;12.40;1.00;;;;;;6290588;28;20256;-54
2022/10/01 15:46:19;;;;;;;5.10;4.90;;;12.40;1.00;;;;;;6297913;28;20240;-54
2022/10/01 15:49:26;;;;;;;4.17;3.90;;;12.40;1.00;;;;;;6278122;28;20415;-53
2022/10/01 15:52:51;;;;;;;4.10;3.90;;;12.50;1.00;;;;;;6286129;28;20632;-56
2022/10/01 15:55:56;;;;;;;4.23;4.13;;;12.50;1.00;;;;;;6290085;28;20238;-56
2022/10/01 15:59:12;;;;;;;4.00;3.80;;;12.50;1.00;;;;;;6292887;28;20787;-55
2022/10/01 16:02:20;;;;;;;3.77;3.57;;;12.60;1.00;;;;;;6292358;28;20240;-55
2022/10/01 16:05:26;;;;;;;3.50;3.30;;;12.50;1.00;;;;;;6284009;28;20257;-55
2022/10/01 16:08:34;;;;;;;3.60;3.50;;;12.50;1.00;;;;;;6284525;28;20798;-52
2022/10/01 16:11:51;;;;;;;4.33;4.13;;;12.40;1.00;;;;;;6282876;28;20311;-53
2022/10/01 16:14:59;;;;;;;4.20;4.00;;;12.40;1.00;;;;;;6284576;28;20225;-55
2022/10/01 16:18:02;;;;;;;4.17;3.83;;;12.30;1.00;;;;;;6293515;28;20380;-55
2022/10/01 16:21:08;;;;;;;3.90;3.80;;;12.30;1.00;;;;;;6282773;28;20233;-55
2022/10/01 16:24:27;;;;;;;4.50;4.30;;;12.30;1.00;;;;;;6283909;28;20241;-53
2022/10/01 16:27:34;;;;;;;4.00;3.80;;;12.30;1.00;;;;;;6287893;28;20225;-53
2022/10/01 16:30:37;;;;;;;3.90;3.80;;;12.20;1.00;;;;;;6290842;28;20244;-54
2022/10/01 16:33:40;;;;;;;3.67;3.57;;;12.10;1.00;;;;;;6283106;28;20230;-54
2022/10/01 16:36:43;;;;;;;4.30;4.10;;;12.10;1.00;;;;;;6282969;28;20520;-53